General Aviation Weather

Text Reports

Enter one or more of the following location identifiers separated by a space:

Zip Code, Four-Character ICAO or Three-Character IATA airport codes.

METAR - Aviation Routine Weather Report
KOXV - Knoxville, Iowa
Updated at 11:35 PM GMT on September 17, 2014 (6:35 PM CDT):
METAR KOXV 172335Z AUTO 12003KT 10SM SCT043 21/14 A2993 RMK AO2
TAF - Terminal Area Forecast
KOXV - Knoxville, Iowa
Updated at 11:35 PM GMT on September 17, 2014 (6:35 PM CDT):
No TAF is currently available for this location.
Decoded:
No decoded TAF is available.
PIREP - Pilot Weather Report
KOXV - Knoxville, Iowa
Updated at 11:35 PM GMT on September 17, 2014 (6:35 PM CDT):
No PIREP is currently available for this location.
AIRMET - Airmens Meteorological Information
KOXV - Knoxville, Iowa
Updated at 11:35 PM GMT on September 17, 2014 (6:35 PM CDT):
No AIRMET is currently available for this location.
SIGMET - Significant Meteorological Information
KOXV - Knoxville, Iowa
Updated at 11:35 PM GMT on September 17, 2014 (6:35 PM CDT):
No SIGMET is currently available for this location.
NOTAM - Notice to Airmen
KOXV - Knoxville, Iowa
Updated at 11:35 PM GMT on September 17, 2014 (6:35 PM CDT):
No NOTAM is currently available for this location.
Forecast Area
KOXV - Knoxville, Iowa
Updated at 11:35 PM GMT on September 17, 2014 (6:35 PM CDT):
No NOTAM is currently available for this location.
Aviation Weather Maps